sensor_id;sensor_type;location;lat;lon;timestamp;P1;durP1;ratioP1;P2;durP2;ratioP2
24335;SDS011;33098;52.400;16.880;2023-08-24T00:00:55;8.60;;;3.30;;
24335;SDS011;33098;52.400;16.880;2023-08-24T00:03:32;5.20;;;3.10;;
24335;SDS011;33098;52.400;16.880;2023-08-24T00:05:59;5.10;;;3.20;;
24335;SDS011;33098;52.400;16.880;2023-08-24T00:08:29;3.90;;;3.10;;
24335;SDS011;33098;52.400;16.880;2023-08-24T00:10:58;4.70;;;2.90;;
24335;SDS011;33098;52.400;16.880;2023-08-24T00:13:29;5.10;;;3.00;;
24335;SDS011;33098;52.400;16.880;2023-08-24T00:15:56;6.40;;;3.30;;
24335;SDS011;33098;52.400;16.880;2023-08-24T00:18:24;5.40;;;3.50;;
24335;SDS011;33098;52.400;16.880;2023-08-24T00:20:51;5.60;;;3.10;;
24335;SDS011;33098;52.400;16.880;2023-08-24T00:23:18;5.80;;;3.10;;
24335;SDS011;33098;52.400;16.880;2023-08-24T00:25:45;6.40;;;3.10;;
24335;SDS011;33098;52.400;16.880;2023-08-24T00:28:12;5.70;;;3.10;;
24335;SDS011;33098;52.400;16.880;2023-08-24T00:30:43;5.30;;;3.00;;
24335;SDS011;33098;52.400;16.880;2023-08-24T00:33:11;6.70;;;3.00;;
24335;SDS011;33098;52.400;16.880;2023-08-24T00:35:39;6.70;;;3.10;;
24335;SDS011;33098;52.400;16.880;2023-08-24T00:38:05;4.70;;;2.80;;
24335;SDS011;33098;52.400;16.880;2023-08-24T00:40:35;7.60;;;3.20;;
24335;SDS011;33098;52.400;16.880;2023-08-24T00:43:08;5.30;;;2.90;;
24335;SDS011;33098;52.400;16.880;2023-08-24T00:45:35;7.50;;;2.90;;
24335;SDS011;33098;52.400;16.880;2023-08-24T00:48:05;3.50;;;2.80;;
24335;SDS011;33098;52.400;16.880;2023-08-24T00:50:32;4.20;;;2.70;;
24335;SDS011;33098;52.400;16.880;2023-08-24T00:53:07;3.90;;;2.90;;
24335;SDS011;33098;52.400;16.880;2023-08-24T00:55:34;4.10;;;3.00;;
24335;SDS011;33098;52.400;16.880;2023-08-24T00:58:02;5.10;;;2.90;;
24335;SDS011;33098;52.400;16.880;2023-08-24T01:00:30;5.90;;;2.80;;
24335;SDS011;33098;52.400;16.880;2023-08-24T01:02:59;4.90;;;3.20;;
24335;SDS011;33098;52.400;16.880;2023-08-24T01:05:28;4.60;;;2.90;;
24335;SDS011;33098;52.400;16.880;2023-08-24T01:07:54;4.90;;;2.90;;
24335;SDS011;33098;52.400;16.880;2023-08-24T01:10:22;7.20;;;3.10;;
24335;SDS011;33098;52.400;16.880;2023-08-24T01:13:04;4.20;;;3.10;;
24335;SDS011;33098;52.400;16.880;2023-08-24T01:18:11;8.50;;;3.00;;
24335;SDS011;33098;52.400;16.880;2023-08-24T01:20:44;6.20;;;3.00;;
24335;SDS011;33098;52.400;16.880;2023-08-24T01:25:54;5.10;;;3.10;;
24335;SDS011;33098;52.400;16.880;2023-08-24T01:28:34;6.00;;;3.00;;
24335;SDS011;33098;52.400;16.880;2023-08-24T01:31:01;6.60;;;3.60;;
24335;SDS011;33098;52.400;16.880;2023-08-24T01:33:31;5.10;;;3.30;;
24335;SDS011;33098;52.400;16.880;2023-08-24T01:35:58;4.80;;;3.20;;
24335;SDS011;33098;52.400;16.880;2023-08-24T01:38:58;6.60;;;3.80;;
24335;SDS011;33098;52.400;16.880;2023-08-24T01:41:35;4.50;;;3.30;;
24335;SDS011;33098;52.400;16.880;2023-08-24T01:44:09;4.10;;;3.00;;
24335;SDS011;33098;52.400;16.880;2023-08-24T01:46:45;6.10;;;3.20;;
24335;SDS011;33098;52.400;16.880;2023-08-24T01:49:17;4.20;;;3.20;;
24335;SDS011;33098;52.400;16.880;2023-08-24T01:51:48;5.10;;;3.10;;
24335;SDS011;33098;52.400;16.880;2023-08-24T01:54:15;4.10;;;2.90;;
24335;SDS011;33098;52.400;16.880;2023-08-24T01:56:42;4.80;;;2.80;;
24335;SDS011;33098;52.400;16.880;2023-08-24T01:59:09;4.70;;;3.60;;
24335;SDS011;33098;52.400;16.880;2023-08-24T02:04:05;9.00;;;3.20;;
24335;SDS011;33098;52.400;16.880;2023-08-24T02:06:32;4.10;;;3.20;;
24335;SDS011;33098;52.400;16.880;2023-08-24T02:08:59;7.60;;;3.20;;
24335;SDS011;33098;52.400;16.880;2023-08-24T02:11:26;4.00;;;3.10;;
24335;SDS011;33098;52.400;16.880;2023-08-24T02:13:53;3.50;;;3.00;;
24335;SDS011;33098;52.400;16.880;2023-08-24T02:16:22;4.10;;;2.90;;
24335;SDS011;33098;52.400;16.880;2023-08-24T02:18:51;6.20;;;3.30;;
24335;SDS011;33098;52.400;16.880;2023-08-24T02:21:18;4.10;;;3.30;;
24335;SDS011;33098;52.400;16.880;2023-08-24T02:23:48;5.20;;;3.10;;
24335;SDS011;33098;52.400;16.880;2023-08-24T02:26:16;6.10;;;3.30;;
24335;SDS011;33098;52.400;16.880;2023-08-24T02:28:43;4.50;;;3.00;;
24335;SDS011;33098;52.400;16.880;2023-08-24T02:31:10;10.00;;;3.90;;
24335;SDS011;33098;52.400;16.880;2023-08-24T02:33:37;4.60;;;3.30;;
24335;SDS011;33098;52.400;16.880;2023-08-24T02:36:04;4.90;;;3.40;;
24335;SDS011;33098;52.400;16.880;2023-08-24T02:38:32;5.20;;;3.40;;
24335;SDS011;33098;52.400;16.880;2023-08-24T02:41:05;5.70;;;3.30;;
24335;SDS011;33098;52.400;16.880;2023-08-24T02:43:33;7.00;;;3.80;;
24335;SDS011;33098;52.400;16.880;2023-08-24T02:46:02;5.20;;;3.50;;
24335;SDS011;33098;52.400;16.880;2023-08-24T02:48:32;6.20;;;3.60;;
24335;SDS011;33098;52.400;16.880;2023-08-24T02:51:00;5.50;;;3.40;;
24335;SDS011;33098;52.400;16.880;2023-08-24T02:53:29;5.10;;;3.40;;
24335;SDS011;33098;52.400;16.880;2023-08-24T02:55:57;5.70;;;3.50;;
24335;SDS011;33098;52.400;16.880;2023-08-24T02:58:26;6.10;;;3.40;;
24335;SDS011;33098;52.400;16.880;2023-08-24T03:00:54;5.40;;;3.60;;
24335;SDS011;33098;52.400;16.880;2023-08-24T03:03:23;5.30;;;3.60;;
24335;SDS011;33098;52.400;16.880;2023-08-24T03:06:02;5.00;;;3.80;;
24335;SDS011;33098;52.400;16.880;2023-08-24T03:08:32;4.50;;;3.40;;
24335;SDS011;33098;52.400;16.880;2023-08-24T03:11:01;6.70;;;4.00;;
24335;SDS011;33098;52.400;16.880;2023-08-24T03:13:30;5.40;;;3.90;;
24335;SDS011;33098;52.400;16.880;2023-08-24T03:16:02;5.70;;;3.40;;
24335;SDS011;33098;52.400;16.880;2023-08-24T03:18:30;6.80;;;3.80;;
24335;SDS011;33098;52.400;16.880;2023-08-24T03:20:58;5.90;;;3.70;;
24335;SDS011;33098;52.400;16.880;2023-08-24T03:23:25;4.90;;;3.70;;
24335;SDS011;33098;52.400;16.880;2023-08-24T03:25:56;6.20;;;3.60;;
24335;SDS011;33098;52.400;16.880;2023-08-24T03:28:24;5.90;;;3.60;;
24335;SDS011;33098;52.400;16.880;2023-08-24T03:30:52;4.80;;;3.50;;
24335;SDS011;33098;52.400;16.880;2023-08-24T03:33:22;6.80;;;3.70;;
24335;SDS011;33098;52.400;16.880;2023-08-24T03:35:49;5.30;;;3.70;;
24335;SDS011;33098;52.400;16.880;2023-08-24T03:38:16;5.70;;;4.10;;
24335;SDS011;33098;52.400;16.880;2023-08-24T03:40:43;4.80;;;3.80;;
24335;SDS011;33098;52.400;16.880;2023-08-24T03:43:11;5.10;;;3.50;;
24335;SDS011;33098;52.400;16.880;2023-08-24T03:45:38;6.30;;;3.80;;
24335;SDS011;33098;52.400;16.880;2023-08-24T03:48:05;7.10;;;4.10;;
24335;SDS011;33098;52.400;16.880;2023-08-24T03:50:33;5.00;;;3.80;;
24335;SDS011;33098;52.400;16.880;2023-08-24T03:52:59;8.20;;;4.20;;
24335;SDS011;33098;52.400;16.880;2023-08-24T03:55:26;5.60;;;3.80;;
24335;SDS011;33098;52.400;16.880;2023-08-24T03:57:54;4.60;;;4.10;;
24335;SDS011;33098;52.400;16.880;2023-08-24T04:00:21;7.70;;;4.00;;
24335;SDS011;33098;52.400;16.880;2023-08-24T04:02:50;6.00;;;3.80;;
24335;SDS011;33098;52.400;16.880;2023-08-24T04:05:23;6.20;;;3.90;;
24335;SDS011;33098;52.400;16.880;2023-08-24T04:07:51;8.40;;;3.90;;
24335;SDS011;33098;52.400;16.880;2023-08-24T04:10:19;5.10;;;4.00;;
24335;SDS011;33098;52.400;16.880;2023-08-24T04:12:46;6.00;;;3.70;;
24335;SDS011;33098;52.400;16.880;2023-08-24T04:15:16;8.00;;;4.10;;
24335;SDS011;33098;52.400;16.880;2023-08-24T04:17:43;5.60;;;3.80;;
24335;SDS011;33098;52.400;16.880;2023-08-24T04:20:11;6.80;;;4.00;;
24335;SDS011;33098;52.400;16.880;2023-08-24T04:22:38;5.30;;;3.80;;
24335;SDS011;33098;52.400;16.880;2023-08-24T04:25:07;6.30;;;4.30;;
24335;SDS011;33098;52.400;16.880;2023-08-24T04:27:37;6.00;;;3.60;;
24335;SDS011;33098;52.400;16.880;2023-08-24T04:30:05;5.90;;;4.00;;
24335;SDS011;33098;52.400;16.880;2023-08-24T04:32:38;6.00;;;4.10;;
24335;SDS011;33098;52.400;16.880;2023-08-24T04:35:07;8.60;;;4.40;;
24335;SDS011;33098;52.400;16.880;2023-08-24T04:37:38;5.90;;;4.30;;
24335;SDS011;33098;52.400;16.880;2023-08-24T04:40:05;7.70;;;4.40;;
24335;SDS011;33098;52.400;16.880;2023-08-24T04:42:34;5.10;;;4.20;;
24335;SDS011;33098;52.400;16.880;2023-08-24T04:45:00;6.90;;;4.10;;
24335;SDS011;33098;52.400;16.880;2023-08-24T04:47:29;4.90;;;4.10;;
24335;SDS011;33098;52.400;16.880;2023-08-24T04:49:57;6.70;;;4.50;;
24335;SDS011;33098;52.400;16.880;2023-08-24T04:52:24;8.90;;;4.50;;
24335;SDS011;33098;52.400;16.880;2023-08-24T04:54:51;8.80;;;4.40;;
24335;SDS011;33098;52.400;16.880;2023-08-24T04:57:21;9.00;;;4.50;;
24335;SDS011;33098;52.400;16.880;2023-08-24T04:59:50;6.10;;;4.90;;
24335;SDS011;33098;52.400;16.880;2023-08-24T05:02:17;7.50;;;4.50;;
24335;SDS011;33098;52.400;16.880;2023-08-24T05:04:44;7.40;;;5.00;;
24335;SDS011;33098;52.400;16.880;2023-08-24T05:07:11;8.50;;;5.00;;
24335;SDS011;33098;52.400;16.880;2023-08-24T05:09:38;6.40;;;4.60;;
24335;SDS011;33098;52.400;16.880;2023-08-24T05:12:07;6.90;;;5.30;;
24335;SDS011;33098;52.400;16.880;2023-08-24T05:14:36;9.50;;;5.40;;
24335;SDS011;33098;52.400;16.880;2023-08-24T05:17:06;8.60;;;5.20;;
24335;SDS011;33098;52.400;16.880;2023-08-24T05:19:32;8.00;;;5.10;;
24335;SDS011;33098;52.400;16.880;2023-08-24T05:21:59;11.10;;;5.60;;
24335;SDS011;33098;52.400;16.880;2023-08-24T05:24:26;8.70;;;5.10;;
24335;SDS011;33098;52.400;16.880;2023-08-24T05:26:52;8.80;;;5.10;;
24335;SDS011;33098;52.400;16.880;2023-08-24T05:29:19;8.00;;;5.60;;
24335;SDS011;33098;52.400;16.880;2023-08-24T05:31:47;5.80;;;4.80;;
24335;SDS011;33098;52.400;16.880;2023-08-24T05:34:14;11.30;;;5.70;;
24335;SDS011;33098;52.400;16.880;2023-08-24T05:36:41;7.20;;;4.70;;
24335;SDS011;33098;52.400;16.880;2023-08-24T05:39:08;9.70;;;5.90;;
24335;SDS011;33098;52.400;16.880;2023-08-24T05:41:36;8.20;;;4.90;;
24335;SDS011;33098;52.400;16.880;2023-08-24T05:44:04;10.10;;;5.70;;
24335;SDS011;33098;52.400;16.880;2023-08-24T05:46:32;8.20;;;5.10;;
24335;SDS011;33098;52.400;16.880;2023-08-24T05:48:59;8.30;;;4.90;;
24335;SDS011;33098;52.400;16.880;2023-08-24T05:51:26;10.80;;;5.50;;
24335;SDS011;33098;52.400;16.880;2023-08-24T05:53:53;6.80;;;4.60;;
24335;SDS011;33098;52.400;16.880;2023-08-24T05:56:25;9.90;;;4.90;;
24335;SDS011;33098;52.400;16.880;2023-08-24T05:58:53;6.50;;;4.70;;
24335;SDS011;33098;52.400;16.880;2023-08-24T06:01:23;9.40;;;5.10;;
24335;SDS011;33098;52.400;16.880;2023-08-24T06:03:51;7.40;;;5.40;;
24335;SDS011;33098;52.400;16.880;2023-08-24T06:06:23;10.50;;;5.10;;
24335;SDS011;33098;52.400;16.880;2023-08-24T06:08:50;8.00;;;4.90;;
24335;SDS011;33098;52.400;16.880;2023-08-24T06:11:17;8.70;;;4.60;;
24335;SDS011;33098;52.400;16.880;2023-08-24T06:13:44;5.50;;;4.60;;
24335;SDS011;33098;52.400;16.880;2023-08-24T06:16:11;8.60;;;4.70;;
24335;SDS011;33098;52.400;16.880;2023-08-24T06:18:38;5.80;;;4.30;;
24335;SDS011;33098;52.400;16.880;2023-08-24T06:21:05;8.10;;;3.80;;
24335;SDS011;33098;52.400;16.880;2023-08-24T06:23:35;5.60;;;3.50;;
24335;SDS011;33098;52.400;16.880;2023-08-24T06:26:04;7.80;;;4.40;;
24335;SDS011;33098;52.400;16.880;2023-08-24T06:28:31;5.10;;;4.10;;
24335;SDS011;33098;52.400;16.880;2023-08-24T06:31:02;8.60;;;4.20;;
24335;SDS011;33098;52.400;16.880;2023-08-24T06:33:33;5.70;;;3.80;;
24335;SDS011;33098;52.400;16.880;2023-08-24T06:36:04;6.40;;;3.40;;
24335;SDS011;33098;52.400;16.880;2023-08-24T06:38:35;8.00;;;4.00;;
24335;SDS011;33098;52.400;16.880;2023-08-24T06:41:02;9.20;;;4.00;;
24335;SDS011;33098;52.400;16.880;2023-08-24T06:43:29;7.30;;;4.00;;
24335;SDS011;33098;52.400;16.880;2023-08-24T06:46:02;6.40;;;3.60;;
24335;SDS011;33098;52.400;16.880;2023-08-24T06:48:29;4.60;;;3.40;;
24335;SDS011;33098;52.400;16.880;2023-08-24T06:50:57;6.40;;;3.60;;
24335;SDS011;33098;52.400;16.880;2023-08-24T06:53:26;5.10;;;3.00;;
24335;SDS011;33098;52.400;16.880;2023-08-24T06:55:53;9.00;;;3.00;;
24335;SDS011;33098;52.400;16.880;2023-08-24T06:58:26;5.00;;;2.90;;
24335;SDS011;33098;52.400;16.880;2023-08-24T07:00:54;5.90;;;2.60;;
24335;SDS011;33098;52.400;16.880;2023-08-24T07:03:22;5.80;;;2.80;;
24335;SDS011;33098;52.400;16.880;2023-08-24T07:05:50;6.70;;;2.30;;
24335;SDS011;33098;52.400;16.880;2023-08-24T07:08:17;5.20;;;2.20;;
24335;SDS011;33098;52.400;16.880;2023-08-24T07:10:44;4.90;;;2.50;;
24335;SDS011;33098;52.400;16.880;2023-08-24T07:13:11;4.80;;;2.10;;
24335;SDS011;33098;52.400;16.880;2023-08-24T07:15:41;5.50;;;2.20;;
24335;SDS011;33098;52.400;16.880;2023-08-24T07:18:08;3.90;;;2.70;;
24335;SDS011;33098;52.400;16.880;2023-08-24T07:20:38;4.30;;;2.30;;
24335;SDS011;33098;52.400;16.880;2023-08-24T07:25:32;4.20;;;2.40;;
24335;SDS011;33098;52.400;16.880;2023-08-24T07:27:59;3.80;;;2.40;;
24335;SDS011;33098;52.400;16.880;2023-08-24T07:30:27;6.90;;;2.40;;
24335;SDS011;33098;52.400;16.880;2023-08-24T07:32:53;5.60;;;2.20;;
24335;SDS011;33098;52.400;16.880;2023-08-24T07:35:21;3.40;;;2.10;;
24335;SDS011;33098;52.400;16.880;2023-08-24T07:37:51;8.50;;;2.20;;
24335;SDS011;33098;52.400;16.880;2023-08-24T07:40:19;5.00;;;2.20;;
24335;SDS011;33098;52.400;16.880;2023-08-24T07:42:49;8.80;;;2.30;;
24335;SDS011;33098;52.400;16.880;2023-08-24T07:45:20;4.90;;;2.10;;
24335;SDS011;33098;52.400;16.880;2023-08-24T07:47:47;2.80;;;1.90;;
24335;SDS011;33098;52.400;16.880;2023-08-24T07:50:16;6.00;;;1.60;;
24335;SDS011;33098;52.400;16.880;2023-08-24T07:52:43;4.50;;;1.70;;
24335;SDS011;33098;52.400;16.880;2023-08-24T07:55:15;5.40;;;1.70;;
24335;SDS011;33098;52.400;16.880;2023-08-24T07:57:46;3.90;;;1.50;;
24335;SDS011;33098;52.400;16.880;2023-08-24T08:00:14;7.80;;;1.80;;
24335;SDS011;33098;52.400;16.880;2023-08-24T08:02:41;3.30;;;1.30;;
24335;SDS011;33098;52.400;16.880;2023-08-24T08:05:08;7.00;;;1.80;;
24335;SDS011;33098;52.400;16.880;2023-08-24T08:07:39;6.00;;;1.80;;
24335;SDS011;33098;52.400;16.880;2023-08-24T08:10:06;5.90;;;2.10;;
24335;SDS011;33098;52.400;16.880;2023-08-24T08:12:33;4.60;;;1.70;;
24335;SDS011;33098;52.400;16.880;2023-08-24T08:15:00;3.80;;;1.70;;
24335;SDS011;33098;52.400;16.880;2023-08-24T08:17:27;2.50;;;1.40;;
24335;SDS011;33098;52.400;16.880;2023-08-24T08:22:24;5.80;;;1.60;;
24335;SDS011;33098;52.400;16.880;2023-08-24T08:24:53;3.70;;;1.40;;
24335;SDS011;33098;52.400;16.880;2023-08-24T08:27:23;5.60;;;1.70;;
24335;SDS011;33098;52.400;16.880;2023-08-24T08:29:55;5.30;;;1.70;;
24335;SDS011;33098;52.400;16.880;2023-08-24T08:32:22;2.50;;;1.40;;
24335;SDS011;33098;52.400;16.880;2023-08-24T08:34:54;5.50;;;1.50;;
24335;SDS011;33098;52.400;16.880;2023-08-24T08:37:32;4.70;;;1.50;;
24335;SDS011;33098;52.400;16.880;2023-08-24T08:40:03;3.60;;;1.60;;
24335;SDS011;33098;52.400;16.880;2023-08-24T08:42:35;4.30;;;1.60;;
24335;SDS011;33098;52.400;16.880;2023-08-24T08:45:04;2.70;;;1.10;;
24335;SDS011;33098;52.400;16.880;2023-08-24T08:47:41;2.50;;;1.30;;
24335;SDS011;33098;52.400;16.880;2023-08-24T08:50:10;2.40;;;1.40;;
24335;SDS011;33098;52.400;16.880;2023-08-24T08:52:38;1.40;;;1.20;;
24335;SDS011;33098;52.400;16.880;2023-08-24T08:55:05;2.90;;;1.30;;
24335;SDS011;33098;52.400;16.880;2023-08-24T08:57:36;2.10;;;1.60;;
24335;SDS011;33098;52.400;16.880;2023-08-24T09:00:09;4.00;;;1.50;;
24335;SDS011;33098;52.400;16.880;2023-08-24T09:02:42;3.20;;;1.50;;
24335;SDS011;33098;52.400;16.880;2023-08-24T09:05:12;3.70;;;1.50;;
24335;SDS011;33098;52.400;16.880;2023-08-24T09:07:39;3.10;;;1.60;;
24335;SDS011;33098;52.400;16.880;2023-08-24T09:10:08;3.80;;;1.50;;
24335;SDS011;33098;52.400;16.880;2023-08-24T09:12:40;3.80;;;1.60;;
24335;SDS011;33098;52.400;16.880;2023-08-24T09:15:08;2.50;;;1.40;;
24335;SDS011;33098;52.400;16.880;2023-08-24T09:17:35;3.50;;;1.60;;
24335;SDS011;33098;52.400;16.880;2023-08-24T09:20:08;2.90;;;1.50;;
24335;SDS011;33098;52.400;16.880;2023-08-24T09:22:41;2.30;;;1.50;;
24335;SDS011;33098;52.400;16.880;2023-08-24T09:25:10;3.70;;;1.70;;
24335;SDS011;33098;52.400;16.880;2023-08-24T09:27:38;3.90;;;1.70;;
24335;SDS011;33098;52.400;16.880;2023-08-24T09:30:05;3.00;;;1.90;;
24335;SDS011;33098;52.400;16.880;2023-08-24T09:32:34;3.90;;;1.60;;
24335;SDS011;33098;52.400;16.880;2023-08-24T09:35:02;2.70;;;1.80;;
24335;SDS011;33098;52.400;16.880;2023-08-24T09:37:39;2.70;;;1.90;;
24335;SDS011;33098;52.400;16.880;2023-08-24T09:40:11;4.10;;;1.40;;
24335;SDS011;33098;52.400;16.880;2023-08-24T09:42:41;4.50;;;1.70;;
24335;SDS011;33098;52.400;16.880;2023-08-24T09:45:12;3.10;;;1.50;;
24335;SDS011;33098;52.400;16.880;2023-08-24T09:47:50;5.90;;;2.10;;
24335;SDS011;33098;52.400;16.880;2023-08-24T09:50:23;6.80;;;1.90;;
24335;SDS011;33098;52.400;16.880;2023-08-24T09:52:51;3.80;;;1.60;;
24335;SDS011;33098;52.400;16.880;2023-08-24T09:55:23;2.90;;;1.70;;
24335;SDS011;33098;52.400;16.880;2023-08-24T09:57:53;1.80;;;1.50;;
24335;SDS011;33098;52.400;16.880;2023-08-24T10:00:25;5.30;;;1.70;;
24335;SDS011;33098;52.400;16.880;2023-08-24T10:02:57;2.80;;;1.60;;
24335;SDS011;33098;52.400;16.880;2023-08-24T10:05:27;3.50;;;1.50;;
24335;SDS011;33098;52.400;16.880;2023-08-24T10:07:56;2.50;;;1.50;;
24335;SDS011;33098;52.400;16.880;2023-08-24T10:10:25;2.70;;;1.60;;
24335;SDS011;33098;52.400;16.880;2023-08-24T10:17:53;3.40;;;1.50;;
24335;SDS011;33098;52.400;16.880;2023-08-24T10:20:22;1.90;;;1.60;;
24335;SDS011;33098;52.400;16.880;2023-08-24T10:22:50;5.70;;;1.90;;
24335;SDS011;33098;52.400;16.880;2023-08-24T10:25:24;3.10;;;1.60;;
24335;SDS011;33098;52.400;16.880;2023-08-24T10:27:53;3.00;;;1.70;;
24335;SDS011;33098;52.400;16.880;2023-08-24T10:30:21;2.20;;;1.50;;
24335;SDS011;33098;52.400;16.880;2023-08-24T10:32:49;2.10;;;1.60;;
24335;SDS011;33098;52.400;16.880;2023-08-24T10:35:19;2.80;;;1.70;;
24335;SDS011;33098;52.400;16.880;2023-08-24T10:37:51;3.30;;;1.70;;
24335;SDS011;33098;52.400;16.880;2023-08-24T10:40:32;3.30;;;1.70;;
24335;SDS011;33098;52.400;16.880;2023-08-24T10:43:05;2.70;;;1.60;;
24335;SDS011;33098;52.400;16.880;2023-08-24T10:48:29;4.00;;;1.50;;
24335;SDS011;33098;52.400;16.880;2023-08-24T10:51:23;3.50;;;1.80;;
24335;SDS011;33098;52.400;16.880;2023-08-24T10:54:02;4.80;;;1.60;;
24335;SDS011;33098;52.400;16.880;2023-08-24T10:56:35;5.40;;;1.80;;
24335;SDS011;33098;52.400;16.880;2023-08-24T10:59:09;2.30;;;1.70;;
24335;SDS011;33098;52.400;16.880;2023-08-24T11:02:04;7.40;;;2.20;;
24335;SDS011;33098;52.400;16.880;2023-08-24T11:04:31;3.10;;;2.20;;
24335;SDS011;33098;52.400;16.880;2023-08-24T11:06:59;5.10;;;1.90;;
24335;SDS011;33098;52.400;16.880;2023-08-24T11:09:47;3.50;;;1.90;;
24335;SDS011;33098;52.400;16.880;2023-08-24T11:12:17;7.10;;;2.00;;
24335;SDS011;33098;52.400;16.880;2023-08-24T11:14:48;2.10;;;1.70;;
24335;SDS011;33098;52.400;16.880;2023-08-24T11:17:25;3.60;;;2.00;;
24335;SDS011;33098;52.400;16.880;2023-08-24T11:19:58;2.30;;;1.50;;
24335;SDS011;33098;52.400;16.880;2023-08-24T11:22:30;5.20;;;1.70;;
24335;SDS011;33098;52.400;16.880;2023-08-24T11:25:06;2.30;;;1.80;;
24335;SDS011;33098;52.400;16.880;2023-08-24T11:27:45;3.80;;;2.00;;
24335;SDS011;33098;52.400;16.880;2023-08-24T11:30:16;2.40;;;1.60;;
24335;SDS011;33098;52.400;16.880;2023-08-24T11:32:43;3.90;;;2.00;;
24335;SDS011;33098;52.400;16.880;2023-08-24T11:35:11;4.00;;;1.70;;
24335;SDS011;33098;52.400;16.880;2023-08-24T11:37:39;4.40;;;2.00;;
24335;SDS011;33098;52.400;16.880;2023-08-24T11:40:16;5.40;;;2.10;;
24335;SDS011;33098;52.400;16.880;2023-08-24T11:42:44;3.70;;;2.00;;
24335;SDS011;33098;52.400;16.880;2023-08-24T11:45:11;5.40;;;1.90;;
24335;SDS011;33098;52.400;16.880;2023-08-24T11:47:39;3.10;;;1.70;;
24335;SDS011;33098;52.400;16.880;2023-08-24T11:50:07;3.20;;;1.60;;
24335;SDS011;33098;52.400;16.880;2023-08-24T11:55:07;4.00;;;2.00;;
24335;SDS011;33098;52.400;16.880;2023-08-24T11:57:35;3.10;;;2.10;;
24335;SDS011;33098;52.400;16.880;2023-08-24T12:00:07;3.60;;;2.10;;
24335;SDS011;33098;52.400;16.880;2023-08-24T12:02:40;4.50;;;1.80;;
24335;SDS011;33098;52.400;16.880;2023-08-24T12:05:19;8.30;;;3.00;;
24335;SDS011;33098;52.400;16.880;2023-08-24T12:07:51;2.80;;;1.70;;
24335;SDS011;33098;52.400;16.880;2023-08-24T12:10:19;4.50;;;1.80;;
24335;SDS011;33098;52.400;16.880;2023-08-24T12:12:48;2.20;;;2.00;;
24335;SDS011;33098;52.400;16.880;2023-08-24T12:15:18;3.10;;;2.10;;
24335;SDS011;33098;52.400;16.880;2023-08-24T12:17:48;3.20;;;1.90;;
24335;SDS011;33098;52.400;16.880;2023-08-24T12:20:18;4.10;;;2.00;;
24335;SDS011;33098;52.400;16.880;2023-08-24T12:22:51;2.70;;;2.00;;
24335;SDS011;33098;52.400;16.880;2023-08-24T12:25:23;5.70;;;2.20;;
24335;SDS011;33098;52.400;16.880;2023-08-24T12:28:10;4.80;;;2.00;;
24335;SDS011;33098;52.400;16.880;2023-08-24T12:33:22;4.70;;;2.10;;
24335;SDS011;33098;52.400;16.880;2023-08-24T12:35:50;3.30;;;2.20;;
24335;SDS011;33098;52.400;16.880;2023-08-24T12:38:17;5.40;;;2.50;;
24335;SDS011;33098;52.400;16.880;2023-08-24T12:40:45;5.20;;;2.30;;
24335;SDS011;33098;52.400;16.880;2023-08-24T12:43:12;4.20;;;2.10;;
24335;SDS011;33098;52.400;16.880;2023-08-24T12:45:44;3.50;;;2.20;;
24335;SDS011;33098;52.400;16.880;2023-08-24T12:48:17;2.90;;;2.30;;
24335;SDS011;33098;52.400;16.880;2023-08-24T12:50:48;4.30;;;2.30;;
24335;SDS011;33098;52.400;16.880;2023-08-24T12:53:15;7.00;;;2.20;;
24335;SDS011;33098;52.400;16.880;2023-08-24T12:55:42;4.40;;;2.20;;
24335;SDS011;33098;52.400;16.880;2023-08-24T12:58:09;3.90;;;2.10;;
24335;SDS011;33098;52.400;16.880;2023-08-24T13:00:36;3.70;;;2.40;;
24335;SDS011;33098;52.400;16.880;2023-08-24T13:03:04;4.10;;;2.30;;
24335;SDS011;33098;52.400;16.880;2023-08-24T13:05:31;5.00;;;2.60;;
24335;SDS011;33098;52.400;16.880;2023-08-24T13:07:57;3.20;;;2.20;;
24335;SDS011;33098;52.400;16.880;2023-08-24T13:10:24;4.40;;;2.30;;
24335;SDS011;33098;52.400;16.880;2023-08-24T13:12:51;2.80;;;2.10;;
24335;SDS011;33098;52.400;16.880;2023-08-24T13:15:23;2.80;;;2.10;;
24335;SDS011;33098;52.400;16.880;2023-08-24T13:17:50;3.90;;;2.10;;
24335;SDS011;33098;52.400;16.880;2023-08-24T13:20:20;5.60;;;2.20;;
24335;SDS011;33098;52.400;16.880;2023-08-24T13:22:47;7.40;;;2.30;;
24335;SDS011;33098;52.400;16.880;2023-08-24T13:25:14;4.60;;;2.30;;
24335;SDS011;33098;52.400;16.880;2023-08-24T13:27:41;4.60;;;2.20;;
24335;SDS011;33098;52.400;16.880;2023-08-24T13:30:08;4.90;;;2.20;;
24335;SDS011;33098;52.400;16.880;2023-08-24T13:32:37;4.80;;;2.10;;
24335;SDS011;33098;52.400;16.880;2023-08-24T13:35:06;3.40;;;2.50;;
24335;SDS011;33098;52.400;16.880;2023-08-24T13:37:35;4.90;;;2.20;;
24335;SDS011;33098;52.400;16.880;2023-08-24T13:40:05;3.10;;;2.10;;
24335;SDS011;33098;52.400;16.880;2023-08-24T13:42:35;2.90;;;2.20;;
24335;SDS011;33098;52.400;16.880;2023-08-24T13:45:06;4.20;;;2.10;;
24335;SDS011;33098;52.400;16.880;2023-08-24T13:47:33;4.80;;;2.30;;
24335;SDS011;33098;52.400;16.880;2023-08-24T13:50:00;2.40;;;2.10;;
24335;SDS011;33098;52.400;16.880;2023-08-24T13:52:27;3.80;;;1.90;;
24335;SDS011;33098;52.400;16.880;2023-08-24T13:54:54;4.70;;;2.10;;
24335;SDS011;33098;52.400;16.880;2023-08-24T13:57:21;7.00;;;2.60;;
24335;SDS011;33098;52.400;16.880;2023-08-24T13:59:50;6.00;;;2.50;;
24335;SDS011;33098;52.400;16.880;2023-08-24T14:02:17;3.30;;;2.10;;
24335;SDS011;33098;52.400;16.880;2023-08-24T14:04:44;4.60;;;2.30;;
24335;SDS011;33098;52.400;16.880;2023-08-24T14:07:11;4.50;;;2.00;;
24335;SDS011;33098;52.400;16.880;2023-08-24T14:09:38;2.50;;;1.90;;
24335;SDS011;33098;52.400;16.880;2023-08-24T14:12:05;3.60;;;2.20;;
24335;SDS011;33098;52.400;16.880;2023-08-24T14:14:31;5.00;;;2.10;;
24335;SDS011;33098;52.400;16.880;2023-08-24T14:17:01;4.30;;;1.80;;
24335;SDS011;33098;52.400;16.880;2023-08-24T14:19:28;3.20;;;1.90;;
24335;SDS011;33098;52.400;16.880;2023-08-24T14:22:01;3.50;;;2.10;;
24335;SDS011;33098;52.400;16.880;2023-08-24T14:24:29;3.70;;;2.10;;
24335;SDS011;33098;52.400;16.880;2023-08-24T14:26:56;3.50;;;2.00;;
24335;SDS011;33098;52.400;16.880;2023-08-24T14:29:26;4.30;;;2.00;;
24335;SDS011;33098;52.400;16.880;2023-08-24T14:31:53;6.50;;;2.20;;
24335;SDS011;33098;52.400;16.880;2023-08-24T14:34:23;2.60;;;2.00;;
24335;SDS011;33098;52.400;16.880;2023-08-24T14:36:50;5.40;;;2.10;;
24335;SDS011;33098;52.400;16.880;2023-08-24T14:39:19;3.90;;;2.10;;
24335;SDS011;33098;52.400;16.880;2023-08-24T14:41:45;3.00;;;1.80;;
24335;SDS011;33098;52.400;16.880;2023-08-24T14:44:24;4.70;;;2.00;;
24335;SDS011;33098;52.400;16.880;2023-08-24T14:46:54;4.50;;;1.90;;
24335;SDS011;33098;52.400;16.880;2023-08-24T14:49:22;3.40;;;2.30;;
24335;SDS011;33098;52.400;16.880;2023-08-24T14:51:51;3.90;;;2.10;;
24335;SDS011;33098;52.400;16.880;2023-08-24T14:54:19;3.50;;;2.30;;
24335;SDS011;33098;52.400;16.880;2023-08-24T14:56:45;4.10;;;2.20;;
24335;SDS011;33098;52.400;16.880;2023-08-24T14:59:15;3.30;;;1.90;;
24335;SDS011;33098;52.400;16.880;2023-08-24T15:01:42;3.50;;;1.90;;
24335;SDS011;33098;52.400;16.880;2023-08-24T15:04:09;3.10;;;2.00;;
24335;SDS011;33098;52.400;16.880;2023-08-24T15:06:36;5.60;;;2.00;;
24335;SDS011;33098;52.400;16.880;2023-08-24T15:09:03;3.40;;;2.10;;
24335;SDS011;33098;52.400;16.880;2023-08-24T15:11:32;4.90;;;2.10;;